Time;durP1;ratioP1;P1;durP2;ratioP2;P2;SDS_P1;SDS_P2;PMS_P1;PMS_P2;Temp;Humidity;BMP_temperature;BMP_pressure;BME280_temperature;BME280_humidity;BME280_pressure;Samples;Min_cycle;Max_cycle;Signal;HPM_P1;HPM_P2
2023/06/04 00:00:31;;;;;;;11.25;10.13;;;14.40;99.90;;;15.27;71.54;97887.50;5195612;28;20756;-75
2023/06/04 00:03:04;;;;;;;11.60;10.50;;;14.40;99.90;;;15.23;71.99;97883.94;5197388;28;20221;-77
2023/06/04 00:05:37;;;;;;;10.90;9.80;;;14.30;99.90;;;15.18;71.17;97884.56;5197874;28;20222;-74
2023/06/04 00:08:11;;;;;;;10.80;9.90;;;14.20;99.90;;;15.17;71.33;97886.28;5201963;28;20253;-79
2023/06/04 00:10:44;;;;;;;10.35;9.35;;;14.30;99.90;;;15.12;71.96;97879.19;5207511;28;20696;-75
2023/06/04 00:13:17;;;;;;;10.52;9.63;;;14.20;99.90;;;15.13;71.36;97886.94;5202985;28;20217;-78
2023/06/04 00:15:52;;;;;;;10.57;9.65;;;14.20;99.90;;;15.13;71.67;97886.94;5194285;28;20230;-76
2023/06/04 00:18:25;;;;;;;10.80;9.80;;;14.20;99.90;;;15.08;71.62;97888.50;5203965;28;20724;-75
2023/06/04 00:20:58;;;;;;;10.70;9.80;;;14.20;99.90;;;14.90;71.69;97887.72;5201290;28;20690;-75
2023/06/04 00:23:31;;;;;;;10.20;9.30;;;14.10;99.90;;;14.92;71.80;97888.69;5197445;28;20233;-79
2023/06/04 00:26:05;;;;;;;10.00;9.02;;;14.00;99.90;;;14.96;72.32;97887.97;5196945;28;20607;-75
2023/06/04 00:28:38;;;;;;;9.77;8.88;;;14.00;99.90;;;14.96;71.71;97895.69;5203452;28;20249;-75
2023/06/04 00:31:13;;;;;;;9.70;8.85;;;14.00;99.90;;;14.91;72.23;97889.47;5204350;28;20313;-76
2023/06/04 00:33:46;;;;;;;8.95;8.20;;;14.00;99.90;;;14.85;71.09;97896.16;5200284;28;20282;-77
2023/06/04 00:36:19;;;;;;;9.65;8.65;;;14.00;99.90;;;14.73;70.12;97887.03;5201007;28;20220;-75
2023/06/04 00:38:52;;;;;;;9.35;8.55;;;13.90;99.90;;;14.76;71.48;97882.88;5200008;28;20312;-78
2023/06/04 00:41:26;;;;;;;9.25;8.35;;;13.90;99.90;;;14.75;71.04;97886.28;5198319;28;20275;-75
2023/06/04 00:44:01;;;;;;;9.40;8.57;;;13.90;99.90;;;14.69;71.24;97882.59;5199620;28;20226;-75
2023/06/04 00:46:36;;;;;;;9.05;8.18;;;13.80;99.90;;;14.70;71.29;97885.22;5200581;28;20324;-78
2023/06/04 00:49:12;;;;;;;9.10;8.32;;;13.80;99.90;;;14.81;70.71;97890.81;5200852;28;20654;-74
2023/06/04 00:51:45;;;;;;;10.48;9.57;;;13.90;99.90;;;14.84;71.51;97894.38;5198150;28;20231;-76
2023/06/04 00:54:20;;;;;;;10.63;9.63;;;13.90;99.90;;;14.67;72.75;97903.09;5197454;28;20313;-75
2023/06/04 00:56:53;;;;;;;10.20;9.30;;;13.70;99.90;;;14.50;72.89;97899.78;5193646;28;20299;-75
2023/06/04 00:59:26;;;;;;;10.50;9.60;;;13.60;99.90;;;14.49;72.23;97902.31;5194348;28;20226;-74
2023/06/04 01:02:06;;;;;;;10.38;9.38;;;13.50;99.90;;;14.40;73.98;97902.81;5197215;28;20299;-77
2023/06/04 01:04:48;;;;;;;10.65;9.65;;;13.50;99.90;;;14.27;72.81;97909.09;5176676;28;20225;-76
2023/06/04 01:07:23;;;;;;;10.40;8.63;;;13.50;99.90;;;14.26;73.21;97911.63;5188490;28;20313;-74
2023/06/04 01:09:57;;;;;;;9.45;8.57;;;13.40;99.90;;;14.23;71.68;97911.47;5197167;28;20275;-76
2023/06/04 01:12:30;;;;;;;9.13;8.23;;;13.30;99.90;;;14.32;72.55;97912.75;5192575;28;20288;-77
2023/06/04 01:15:03;;;;;;;8.73;7.93;;;13.40;99.90;;;14.24;72.41;97914.09;5193933;28;20226;-74
2023/06/04 01:17:41;;;;;;;8.25;7.55;;;13.40;99.90;;;14.14;71.36;97906.81;5202012;28;20245;-75
2023/06/04 01:20:28;;;;;;;8.73;7.85;;;13.30;99.90;;;14.18;71.25;97916.41;5201778;28;20782;-75
2023/06/04 01:23:27;;;;;;;8.27;7.63;;;13.30;99.90;;;14.22;71.92;97917.41;5199315;28;20229;-75
2023/06/04 01:26:02;;;;;;;8.27;7.57;;;13.30;99.90;;;14.19;72.24;97915.59;5195671;28;20217;-76
2023/06/04 01:28:36;;;;;;;9.20;7.10;;;13.30;99.90;;;14.19;71.18;97915.59;5194519;28;20229;-75
2023/06/04 01:31:10;;;;;;;8.10;7.35;;;13.30;99.90;;;14.14;71.23;97909.38;5194590;28;20275;-75
2023/06/04 01:33:45;;;;;;;7.78;7.05;;;13.20;99.90;;;14.02;71.22;97912.31;5198983;28;20233;-76
2023/06/04 01:36:18;;;;;;;7.95;7.10;;;13.10;99.90;;;13.98;71.98;97905.25;5199124;28;20232;-76
2023/06/04 01:38:51;;;;;;;7.80;7.20;;;13.10;99.90;;;13.96;70.72;97912.91;5201957;28;20681;-77
2023/06/04 01:41:25;;;;;;;9.45;6.53;;;13.10;99.90;;;13.95;71.13;97912.81;5199059;28;20327;-75
2023/06/04 01:43:58;;;;;;;8.10;6.82;;;13.10;99.90;;;13.93;70.56;97911.88;5195432;28;20229;-77
2023/06/04 01:46:31;;;;;;;7.40;6.70;;;13.10;99.90;;;13.91;71.54;97904.13;5199702;28;20290;-75
2023/06/04 01:49:06;;;;;;;7.93;7.13;;;13.00;99.90;;;13.86;70.72;97915.00;5195157;28;20221;-75
2023/06/04 01:51:39;;;;;;;7.15;6.65;;;13.00;99.90;;;13.90;70.14;97910.03;5198461;28;20221;-76
2023/06/04 01:54:12;;;;;;;7.20;6.47;;;13.00;99.90;;;13.89;70.91;97916.00;5191619;28;20299;-75
2023/06/04 01:56:46;;;;;;;7.28;6.60;;;13.10;99.90;;;13.92;69.40;97916.13;5191252;28;20225;-76
2023/06/04 01:59:20;;;;;;;7.57;6.68;;;13.00;99.90;;;13.86;70.49;97915.00;5195924;28;20550;-74
2023/06/04 02:01:53;;;;;;;8.27;7.00;;;12.90;99.90;;;13.88;69.79;97914.25;5197131;28;20249;-77
2023/06/04 02:04:27;;;;;;;6.80;6.30;;;13.00;99.90;;;13.74;70.02;97917.88;5193687;28;20372;-74
2023/06/04 02:07:01;;;;;;;7.72;6.93;;;12.90;99.90;;;13.79;70.98;97911.25;5197253;28;20213;-75
2023/06/04 02:09:34;;;;;;;7.63;6.95;;;12.90;99.90;;;13.79;70.21;97920.66;5197140;28;20254;-74
2023/06/04 02:12:09;;;;;;;7.10;6.47;;;12.90;99.90;;;13.76;70.84;97916.25;5196809;28;20225;-76
2023/06/04 02:14:42;;;;;;;6.85;6.22;;;12.90;99.90;;;13.74;71.34;97925.59;5198653;28;20226;-74
2023/06/04 02:17:16;;;;;;;6.57;6.07;;;12.80;99.90;;;13.69;71.14;97927.06;5202384;28;20223;-75
2023/06/04 02:19:50;;;;;;;6.65;6.05;;;12.80;99.90;;;13.61;70.70;97924.13;5197926;28;20309;-74
2023/06/04 02:22:26;;;;;;;6.97;6.38;;;12.70;99.90;;;13.50;71.24;97926.19;5193717;28;20287;-75
2023/06/04 02:24:59;;;;;;;7.55;6.85;;;12.60;99.90;;;13.39;71.30;97923.94;5196676;28;20660;-74
2023/06/04 02:27:32;;;;;;;7.28;6.55;;;12.50;99.90;;;13.31;71.48;97917.59;5195540;28;20229;-76
2023/06/04 02:30:07;;;;;;;7.35;6.25;;;12.50;99.90;;;13.34;72.04;97922.88;5199803;28;20221;-77
2023/06/04 02:32:40;;;;;;;6.78;6.15;;;12.50;99.90;;;13.34;72.19;97918.63;5197921;28;20306;-74
2023/06/04 02:35:15;;;;;;;7.10;6.53;;;12.50;99.90;;;13.35;71.38;97922.94;5195510;28;20757;-74
2023/06/04 02:37:48;;;;;;;6.43;5.93;;;12.50;99.90;;;13.35;70.91;97924.63;5201347;28;20662;-75
2023/06/04 02:40:21;;;;;;;6.75;6.20;;;12.50;99.90;;;13.17;69.81;97924.59;5194748;28;20245;-74
2023/06/04 02:42:55;;;;;;;5.55;5.05;;;12.40;99.90;;;13.22;70.35;97924.03;5200933;28;20764;-75
2023/06/04 02:45:29;;;;;;;6.35;5.53;;;12.40;99.90;;;13.25;69.66;97923.28;5202203;28;20226;-76
2023/06/04 02:48:02;;;;;;;5.32;4.82;;;12.40;99.90;;;13.32;70.25;97929.63;5201958;28;20307;-74
2023/06/04 02:50:36;;;;;;;6.80;5.03;;;12.50;99.90;;;13.28;69.86;97923.47;5196313;28;20271;-74
2023/06/04 02:53:10;;;;;;;5.38;4.88;;;12.50;99.90;;;13.32;69.44;97925.34;5196503;28;20579;-74
2023/06/04 02:55:43;;;;;;;5.57;5.13;;;12.50;99.90;;;13.31;69.15;97925.31;5196818;28;20230;-74
2023/06/04 02:58:16;;;;;;;5.70;5.30;;;12.40;99.90;;;13.30;69.83;97926.97;5193104;28;20221;-74
2023/06/04 03:00:49;;;;;;;6.25;5.65;;;12.50;99.90;;;13.34;70.38;97922.88;5199553;28;20257;-74
2023/06/04 03:03:23;;;;;;;6.38;5.43;;;12.50;99.90;;;13.33;70.10;97937.38;5197852;28;20312;-77
2023/06/04 03:05:59;;;;;;;5.35;4.80;;;12.50;99.90;;;13.32;69.82;97925.34;5199009;28;20243;-74
2023/06/04 03:08:32;;;;;;;6.50;5.43;;;12.50;99.90;;;13.26;70.13;97936.22;5178078;28;20699;-74
2023/06/04 03:11:06;;;;;;;4.80;4.38;;;12.40;99.90;;;13.25;69.79;97923.28;5204089;28;20241;-75
2023/06/04 03:13:40;;;;;;;5.55;4.97;;;12.40;99.90;;;13.23;69.69;97930.03;5184804;28;20265;-72
2023/06/04 03:16:13;;;;;;;5.40;4.90;;;12.30;99.90;;;13.10;68.87;97925.09;5194700;28;20233;-73
2023/06/04 03:18:46;;;;;;;5.47;5.03;;;12.20;99.90;;;13.06;69.25;97932.66;5202575;28;20327;-73
2023/06/04 03:21:21;;;;;;;6.15;5.55;;;12.20;99.90;;;12.88;69.73;97934.34;5198927;28;20226;-72
2023/06/04 03:23:54;;;;;;;6.32;5.70;;;12.00;99.90;;;12.85;70.76;97932.50;5201002;28;20700;-73
2023/06/04 03:26:27;;;;;;;6.30;5.80;;;11.90;99.90;;;12.70;70.86;97935.97;5200042;28;20329;-72
2023/06/04 03:29:01;;;;;;;5.97;5.32;;;11.80;99.90;;;12.56;71.72;97941.31;5198043;28;20240;-72
2023/06/04 03:31:34;;;;;;;5.88;5.38;;;11.70;99.90;;;12.65;72.06;97935.75;5199319;28;20226;-72
2023/06/04 03:34:07;;;;;;;5.97;5.50;;;11.80;99.90;;;12.67;71.95;97946.06;5200522;28;20222;-74
2023/06/04 03:36:42;;;;;;;5.18;4.68;;;11.80;99.90;;;12.71;71.85;97948.88;5202880;28;20304;-73
2023/06/04 03:39:15;;;;;;;5.55;5.05;;;11.90;99.90;;;12.60;70.85;97950.03;5202599;28;20650;-72
2023/06/04 03:41:48;;;;;;;5.75;5.18;;;11.70;99.90;;;12.58;71.37;97946.50;5202573;28;20369;-73
2023/06/04 03:44:22;;;;;;;4.63;4.20;;;11.70;99.90;;;12.39;71.08;97955.84;5199344;28;20229;-73
2023/06/04 03:46:55;;;;;;;5.88;4.93;;;11.60;99.90;;;12.43;70.68;97962.00;5210250;28;20220;-73
2023/06/04 03:49:28;;;;;;;4.65;4.30;;;11.60;99.90;;;12.49;69.74;97951.16;5194120;28;20228;-73
2023/06/04 03:52:03;;;;;;;4.95;4.32;;;11.60;99.90;;;12.41;68.16;97963.59;5196289;28;20285;-73
2023/06/04 03:54:36;;;;;;;4.70;4.30;;;11.60;99.90;;;12.54;68.05;97960.84;5192749;28;20233;-73
2023/06/04 03:57:10;;;;;;;4.50;4.10;;;11.70;99.90;;;12.62;67.52;97959.56;5193889;28;20956;-73
2023/06/04 03:59:43;;;;;;;4.75;4.35;;;11.90;99.90;;;12.72;67.51;97960.03;5193474;28;20316;-73
2023/06/04 04:02:17;;;;;;;4.43;4.13;;;12.00;99.90;;;12.85;68.05;97964.97;5191165;28;20383;-73
2023/06/04 04:04:53;;;;;;;4.53;4.22;;;12.10;99.90;;;13.01;67.72;97958.88;5195726;28;20700;-72
2023/06/04 04:07:28;;;;;;;4.25;3.95;;;12.20;99.90;;;13.12;67.60;97965.44;5198487;28;20701;-73
2023/06/04 04:10:01;;;;;;;4.93;4.43;;;12.20;99.90;;;13.06;68.11;97960.88;5199055;28;20248;-73
2023/06/04 04:12:35;;;;;;;5.97;4.47;;;12.20;99.90;;;12.98;68.07;97958.75;5201371;28;20229;-73
2023/06/04 04:15:09;;;;;;;4.95;4.45;;;12.20;99.90;;;12.94;67.72;97962.84;5200240;28;20668;-73
2023/06/04 04:17:42;;;;;;;4.13;3.78;;;12.20;99.90;;;13.07;67.46;97961.75;5199909;28;20248;-73
2023/06/04 04:20:18;;;;;;;4.90;4.50;;;12.20;99.90;;;13.13;66.86;97963.75;5197502;28;20241;-73
2023/06/04 04:22:52;;;;;;;4.53;4.15;;;12.20;99.90;;;13.10;66.39;97963.59;5197720;28;20225;-72
2023/06/04 04:25:26;;;;;;;4.80;4.03;;;12.20;99.90;;;13.10;66.81;97968.72;5197006;28;20231;-73
2023/06/04 04:28:00;;;;;;;4.40;3.95;;;12.20;99.90;;;13.06;66.82;97972.84;5197052;28;20644;-73
2023/06/04 04:30:34;;;;;;;5.05;4.50;;;12.20;99.90;;;13.05;66.62;97977.09;5196528;28;20317;-73
2023/06/04 04:33:08;;;;;;;4.97;4.05;;;12.20;99.90;;;13.25;66.83;97969.50;5200371;28;20241;-73
2023/06/04 04:35:42;;;;;;;4.20;3.78;;;12.40;99.90;;;13.34;65.29;97979.34;5198742;28;20333;-73
2023/06/04 04:38:17;;;;;;;4.90;4.47;;;12.40;99.90;;;13.42;67.21;97981.47;5197422;28;20233;-73
2023/06/04 04:40:52;;;;;;;4.30;3.90;;;12.50;99.90;;;13.59;67.00;97981.38;5196356;28;20585;-73
2023/06/04 04:43:34;;;;;;;5.03;4.10;;;12.70;99.90;;;13.67;66.03;97986.06;5199623;28;20499;-73
2023/06/04 04:46:08;;;;;;;3.75;3.45;;;12.70;99.90;;;13.60;65.19;97985.72;5195494;28;20424;-73
2023/06/04 04:48:42;;;;;;;5.00;4.25;;;12.60;99.90;;;13.70;64.56;97985.31;5198295;28;20237;-72
2023/06/04 04:51:15;;;;;;;4.05;3.58;;;12.80;99.90;;;13.91;64.48;97991.47;5203752;28;20316;-73
2023/06/04 04:53:50;;;;;;;5.55;3.75;;;13.00;99.90;;;14.10;63.43;97984.59;5197594;28;20229;-72
2023/06/04 04:56:23;;;;;;;3.90;3.60;;;13.20;99.80;;;14.39;61.00;97986.78;5195127;28;20303;-74
2023/06/04 04:58:56;;;;;;;3.75;3.45;;;13.40;99.20;;;14.60;61.09;97991.13;5199451;28;20268;-73
2023/06/04 05:01:30;;;;;;;5.10;3.72;;;13.60;99.60;;;14.99;62.54;97983.34;5195322;28;20321;-73
2023/06/04 05:04:03;;;;;;;3.92;3.55;;;14.00;99.90;;;15.59;60.81;97986.63;5196592;28;20233;-73
2023/06/04 05:06:38;;;;;;;4.65;3.88;;;14.40;99.70;;;15.97;59.48;97982.13;5194260;28;20253;-73
2023/06/04 05:09:12;;;;;;;4.63;4.18;;;14.60;99.10;;;16.09;58.41;97987.75;5194569;28;20265;-73
2023/06/04 05:11:46;;;;;;;3.42;3.20;;;14.70;98.50;;;16.02;57.98;97993.47;5189217;28;20221;-73
2023/06/04 05:14:19;;;;;;;3.67;3.47;;;14.70;98.10;;;15.99;56.52;97995.94;5192405;28;20317;-73
2023/06/04 05:16:52;;;;;;;3.60;3.30;;;14.70;96.90;;;15.84;56.99;97997.94;5196428;28;20229;-75
2023/06/04 05:19:25;;;;;;;3.95;3.65;;;14.60;97.10;;;15.70;57.83;98002.56;5196302;28;20662;-75
2023/06/04 05:21:58;;;;;;;4.10;3.45;;;14.50;97.40;;;15.72;57.03;97999.22;5190934;28;20217;-76
2023/06/04 05:24:33;;;;;;;3.88;2.88;;;14.50;96.80;;;15.83;56.16;97996.19;5192810;28;20236;-76
2023/06/04 05:27:06;;;;;;;3.42;3.13;;;14.60;96.30;;;15.95;55.95;98004.41;5199005;28;20243;-76
2023/06/04 05:29:39;;;;;;;4.05;3.75;;;14.70;96.40;;;15.95;56.07;98007.84;5197861;28;20521;-76
2023/06/04 05:32:12;;;;;;;4.40;3.55;;;14.70;96.30;;;16.04;56.52;98007.31;5196775;28;20221;-76
2023/06/04 05:34:47;;;;;;;4.47;3.63;;;14.80;96.80;;;15.97;56.73;98016.53;5198784;28;20304;-76
2023/06/04 05:37:20;;;;;;;4.03;3.60;;;14.70;96.60;;;16.15;56.07;98021.50;5192825;28;20232;-76
2023/06/04 05:39:55;;;;;;;3.65;3.35;;;14.90;96.00;;;16.23;55.28;98015.75;5194066;28;20965;-76
2023/06/04 05:42:28;;;;;;;3.88;3.38;;;15.00;95.90;;;16.55;54.58;98012.63;5190021;28;20236;-75
2023/06/04 05:45:01;;;;;;;4.32;3.92;;;15.30;95.20;;;16.83;53.13;98004.22;5193050;28;20755;-76
2023/06/04 05:47:35;;;;;;;3.30;2.92;;;15.60;94.20;;;16.84;51.67;98007.66;5196075;28;20249;-75
2023/06/04 05:50:09;;;;;;;5.25;2.90;;;15.60;93.10;;;16.91;51.63;98009.63;5199349;28;20225;-76
2023/06/04 05:52:42;;;;;;;3.72;3.42;;;15.70;92.70;;;16.96;50.76;98018.41;5197522;28;20276;-76
2023/06/04 05:55:16;;;;;;;3.20;2.95;;;15.80;92.50;;;17.70;49.42;98015.66;5196605;28;20262;-76
2023/06/04 05:57:51;;;;;;;4.38;3.00;;;16.30;91.80;;;18.33;48.81;98017.59;5181559;28;20436;-73
2023/06/04 06:00:24;;;;;;;4.28;3.50;;;16.90;91.50;;;18.66;47.90;98017.69;5195337;28;20246;-73
2023/06/04 06:02:57;;;;;;;5.07;3.55;;;17.20;90.80;;;19.03;46.29;98018.69;5196584;28;20237;-73
2023/06/04 06:05:31;;;;;;;4.45;3.42;;;17.50;90.40;;;19.28;45.59;98017.63;5193432;28;20605;-73
2023/06/04 06:08:06;;;;;;;3.17;2.70;;;17.60;89.10;;;19.62;44.91;98027.09;5193354;28;20728;-73
2023/06/04 06:10:40;;;;;;;4.60;2.90;;;17.80;88.40;;;19.91;43.86;98019.16;5194119;28;20302;-73
2023/06/04 06:13:13;;;;;;;3.38;2.90;;;18.10;87.50;;;20.33;42.76;98018.34;5195699;28;20675;-73
2023/06/04 06:15:48;;;;;;;3.28;2.80;;;18.30;86.00;;;20.35;42.65;98027.06;5193849;28;20221;-73
2023/06/04 06:18:21;;;;;;;3.25;2.97;;;18.40;85.40;;;20.89;41.07;98023.84;5204083;28;20227;-73
2023/06/04 06:20:54;;;;;;;3.90;3.00;;;18.90;83.20;;;21.23;40.25;98021.84;5193896;28;20229;-73
2023/06/04 06:23:27;;;;;;;2.85;2.60;;;19.10;82.30;;;21.15;40.05;98017.41;5203784;28;20257;-73
2023/06/04 06:26:04;;;;;;;2.58;2.40;;;19.10;81.50;;;21.84;39.35;98015.09;5203056;28;20233;-73
2023/06/04 06:28:37;;;;;;;2.90;2.70;;;19.50;81.60;;;22.32;37.33;98019.25;5175925;28;20230;-73
2023/06/04 06:31:10;;;;;;;3.78;2.60;;;20.20;78.40;;;22.13;38.33;98032.84;5177606;28;20272;-72
2023/06/04 06:33:43;;;;;;;2.80;2.60;;;20.00;79.20;;;22.41;37.57;98021.97;5196809;28;20676;-72
2023/06/04 06:36:18;;;;;;;2.95;2.42;;;20.00;78.70;;;22.84;37.29;98032.06;5201338;28;20795;-73
2023/06/04 06:38:52;;;;;;;4.75;2.90;;;20.40;78.10;;;23.44;36.52;98019.63;5202506;28;20232;-72
2023/06/04 06:41:27;;;;;;;2.95;2.45;;;20.80;78.00;;;23.87;35.63;98031.31;5203519;28;20229;-72
2023/06/04 06:44:00;;;;;;;2.70;2.47;;;21.20;76.90;;;24.03;35.36;98021.81;5204112;28;20277;-72
2023/06/04 06:46:33;;;;;;;3.88;2.88;;;21.50;75.80;;;24.00;34.70;98027.91;5185151;28;20622;-73
2023/06/04 06:49:06;;;;;;;4.18;3.10;;;21.60;74.30;;;24.15;34.33;98021.91;5199951;28;20222;-72
2023/06/04 06:51:39;;;;;;;3.25;2.67;;;21.90;73.80;;;24.32;35.01;98034.19;5195356;28;20317;-72
2023/06/04 06:54:16;;;;;;;2.80;2.47;;;22.10;73.90;;;24.75;34.21;98029.16;5202248;28;20569;-73
2023/06/04 06:56:51;;;;;;;3.33;2.65;;;22.30;73.00;;;25.00;33.04;98031.00;5202626;28;20631;-72
2023/06/04 06:59:25;;;;;;;3.22;2.92;;;22.70;71.20;;;25.32;33.32;98032.81;5197378;28;20224;-72
2023/06/04 07:01:58;;;;;;;3.95;3.05;;;22.90;71.60;;;25.35;33.43;98038.06;5200312;28;20279;-73
2023/06/04 07:04:31;;;;;;;4.00;2.80;;;23.00;71.60;;;25.37;32.44;98031.94;5209567;28;20240;-72
2023/06/04 07:07:05;;;;;;;3.15;2.80;;;23.20;70.50;;;25.65;32.30;98031.09;5207075;28;20291;-72
2023/06/04 07:09:38;;;;;;;4.13;2.83;;;23.30;70.40;;;25.51;32.82;98034.59;5203756;28;20225;-71
2023/06/04 07:12:13;;;;;;;2.88;2.53;;;23.30;69.70;;;25.92;32.10;98025.88;5205122;28;20285;-72
2023/06/04 07:14:46;;;;;;;2.95;2.75;;;23.50;69.70;;;26.25;32.25;98024.94;5212035;28;20263;-71
2023/06/04 07:17:19;;;;;;;2.88;2.33;;;23.90;69.60;;;26.77;31.54;98029.13;5202642;28;20224;-71
2023/06/04 07:19:52;;;;;;;2.83;2.50;;;24.30;68.90;;;26.83;30.94;98029.09;5202020;28;20549;-69
2023/06/04 07:22:25;;;;;;;3.17;2.80;;;24.50;67.80;;;26.93;31.35;98033.44;5205952;28;20311;-71
2023/06/04 07:24:58;;;;;;;2.67;2.47;;;24.50;68.20;;;26.45;31.35;98030.09;5207610;28;20315;-71
2023/06/04 07:27:32;;;;;;;2.85;2.65;;;24.30;67.50;;;26.99;30.57;98034.28;5198016;28;20225;-70
2023/06/04 07:30:10;;;;;;;3.13;2.83;;;24.80;66.50;;;26.90;30.83;98028.19;5200078;28;20305;-71
2023/06/04 07:32:47;;;;;;;4.13;2.78;;;24.70;66.80;;;27.14;30.67;98023.69;5202500;28;20225;-72
2023/06/04 07:35:21;;;;;;;4.30;2.90;;;24.80;66.90;;;27.10;30.39;98024.56;5201165;28;20332;-72
2023/06/04 07:37:54;;;;;;;3.20;2.80;;;24.80;66.50;;;27.27;30.82;98025.38;5201177;28;20271;-72
2023/06/04 07:40:27;;;;;;;2.90;2.58;;;25.00;66.90;;;27.46;30.03;98026.09;5200517;28;20229;-71
2023/06/04 07:43:01;;;;;;;3.25;3.05;;;25.10;66.00;;;27.51;29.97;98024.31;5203235;28;20213;-71
2023/06/04 07:45:34;;;;;;;3.15;2.85;;;25.40;64.70;;;26.78;30.53;98033.50;5197747;28;20618;-71
2023/06/04 07:48:10;;;;;;;3.40;3.10;;;24.90;64.70;;;27.23;29.68;98022.78;5201843;28;20217;-71
2023/06/04 07:50:43;;;;;;;3.22;2.65;;;24.90;64.60;;;27.61;29.99;98015.50;5205258;28;20235;-71
2023/06/04 07:53:16;;;;;;;3.45;2.60;;;25.20;65.50;;;28.04;29.32;98024.75;5198406;28;20237;-71
2023/06/04 07:55:49;;;;;;;3.85;2.53;;;25.20;65.60;;;27.88;29.51;98028.44;5207259;28;20283;-71
2023/06/04 07:58:26;;;;;;;3.28;2.55;;;25.30;65.20;;;27.75;29.41;98022.38;5202599;28;20692;-70
2023/06/04 08:00:59;;;;;;;3.63;2.80;;;24.90;65.70;;;28.07;29.40;98019.47;5202913;28;20248;-71
2023/06/04 08:03:32;;;;;;;2.70;2.50;;;25.30;65.30;;;28.61;29.35;98022.38;5207665;28;20308;-71
2023/06/04 08:06:06;;;;;;;3.33;2.92;;;25.60;65.60;;;28.14;30.33;98018.53;5203830;28;20601;-71
2023/06/04 08:08:39;;;;;;;3.20;2.90;;;25.70;65.60;;;28.80;29.15;98030.91;5197662;28;20779;-71
2023/06/04 08:11:12;;;;;;;3.30;2.53;;;26.10;64.80;;;29.20;27.87;98014.59;5203088;28;20229;-71
2023/06/04 08:13:46;;;;;;;3.40;2.75;;;26.10;63.60;;;28.85;28.47;98020.34;5198791;28;20307;-71
2023/06/04 08:16:20;;;;;;;3.70;2.70;;;25.60;65.00;;;27.80;30.01;98013.59;5202516;28;20231;-71
2023/06/04 08:18:53;;;;;;;3.63;2.83;;;25.40;65.70;;;28.02;30.79;98011.63;5205806;28;20221;-71
2023/06/04 08:21:29;;;;;;;5.40;2.97;;;25.60;67.20;;;26.84;31.03;98017.75;5199432;28;20238;-71
2023/06/04 08:24:03;;;;;;;2.95;2.67;;;25.40;65.10;;;26.82;31.38;98019.50;5203145;28;20281;-73
2023/06/04 08:26:36;;;;;;;2.83;2.63;;;25.00;66.20;;;27.16;29.99;98011.47;5203973;28;20228;-71
2023/06/04 08:29:10;;;;;;;4.75;3.08;;;25.60;64.00;;;27.43;30.20;97999.00;5200622;28;20224;-71
2023/06/04 08:31:43;;;;;;;3.67;2.67;;;25.80;63.90;;;27.22;30.51;98008.78;5202089;28;20256;-71
2023/06/04 08:34:17;;;;;;;4.38;2.75;;;25.50;64.70;;;27.13;30.06;98012.31;5200513;28;20320;-71
2023/06/04 08:36:50;;;;;;;4.85;3.20;;;25.70;63.00;;;26.82;28.92;98001.13;5198378;28;20251;-71
2023/06/04 08:39:23;;;;;;;3.88;2.83;;;25.80;60.40;;;26.60;30.88;98004.75;5202577;28;20220;-71
2023/06/04 08:42:01;;;;;;;3.17;2.88;;;25.70;62.70;;;26.64;30.26;98006.44;5199618;28;20777;-71
2023/06/04 08:44:36;;;;;;;3.17;2.85;;;25.90;61.70;;;27.02;30.40;98005.41;5182449;28;20248;-71
2023/06/04 08:47:12;;;;;;;3.33;3.00;;;25.90;62.80;;;27.11;29.54;98010.59;5198076;28;20224;-71
2023/06/04 08:49:48;;;;;;;3.80;2.92;;;26.00;60.80;;;26.94;30.03;98016.78;5196252;28;20308;-71
2023/06/04 08:52:21;;;;;;;4.72;3.28;;;26.00;61.90;;;27.04;30.36;98001.00;5197237;28;20225;-71
2023/06/04 08:54:56;;;;;;;3.28;3.03;;;26.20;61.70;;;27.33;30.48;98000.84;5202958;28;20661;-72
2023/06/04 08:57:31;;;;;;;4.53;2.85;;;26.50;61.80;;;27.28;30.31;98000.88;5200008;28;20216;-71
2023/06/04 09:00:08;;;;;;;3.10;2.90;;;26.50;61.10;;;27.02;29.41;98002.78;5194305;28;20228;-71
2023/06/04 09:02:41;;;;;;;3.22;2.92;;;26.50;59.70;;;26.96;29.63;98004.56;5198147;28;20740;-71
2023/06/04 09:05:22;;;;;;;4.45;3.40;;;26.00;60.50;;;27.06;29.76;98001.88;5198936;28;20255;-71
2023/06/04 09:08:01;;;;;;;3.28;3.08;;;26.10;60.90;;;26.35;29.72;98009.16;5195128;28;20221;-71
2023/06/04 09:10:37;;;;;;;3.55;3.08;;;25.60;59.80;;;26.63;29.69;98002.97;5203796;28;20537;-70
2023/06/04 09:13:12;;;;;;;3.40;3.10;;;25.70;60.00;;;26.94;29.94;98001.06;5196440;28;20285;-71
2023/06/04 09:15:46;;;;;;;3.20;2.90;;;26.00;60.50;;;27.04;29.88;98003.63;5210953;28;20220;-71
2023/06/04 09:18:19;;;;;;;4.18;3.53;;;26.20;60.40;;;26.82;29.21;98014.25;5199275;28;20224;-71
2023/06/04 09:21:03;;;;;;;3.42;2.85;;;26.10;59.70;;;26.58;30.07;98006.50;5197028;28;20245;-71
2023/06/04 09:23:37;;;;;;;4.35;3.30;;;25.70;60.70;;;26.11;30.20;98002.25;5196415;28;20219;-71
2023/06/04 09:26:11;;;;;;;3.90;3.60;;;25.60;60.30;;;26.30;30.39;97998.72;5196561;28;20597;-71
2023/06/04 09:28:46;;;;;;;3.63;3.17;;;25.60;60.80;;;25.56;30.92;98008.41;5206836;28;20297;-71
2023/06/04 09:31:22;;;;;;;3.67;3.30;;;25.10;60.70;;;25.73;31.26;98013.66;5198149;28;20248;-71
2023/06/04 09:33:55;;;;;;;4.22;3.83;;;25.20;61.20;;;25.42;32.01;98018.88;5202334;28;20228;-71
2023/06/04 09:36:31;;;;;;;3.83;3.35;;;24.80;62.80;;;25.67;31.65;98011.00;5204685;28;20244;-71
2023/06/04 09:39:05;;;;;;;5.10;4.70;;;24.80;62.10;;;25.87;31.25;98009.31;5203274;28;20217;-71
2023/06/04 09:41:38;;;;;;;4.38;3.95;;;25.20;61.20;;;26.09;31.16;98011.88;5197209;28;20303;-72
2023/06/04 09:44:12;;;;;;;3.53;3.22;;;25.40;61.40;;;25.97;30.48;98012.75;5198948;28;20371;-72
2023/06/04 09:46:56;;;;;;;3.67;3.40;;;25.30;60.60;;;26.01;30.16;98006.63;5212472;28;20244;-69
2023/06/04 09:49:29;;;;;;;3.67;3.38;;;25.30;60.10;;;26.33;30.70;97996.09;5199693;28;20322;-69
2023/06/04 09:52:02;;;;;;;3.65;3.35;;;25.70;60.20;;;26.65;30.39;97997.72;5196301;28;20307;-70
2023/06/04 09:54:37;;;;;;;3.95;3.33;;;26.10;60.40;;;26.80;30.66;97988.91;5206120;28;20318;-69
2023/06/04 09:57:16;;;;;;;4.90;4.20;;;26.30;60.80;;;26.68;30.14;97997.72;5198273;28;20284;-69
2023/06/04 09:59:51;;;;;;;5.20;3.75;;;26.10;60.20;;;26.67;29.88;97991.59;5202032;28;20312;-69
2023/06/04 10:02:30;;;;;;;4.15;3.47;;;26.10;59.80;;;26.85;29.27;97990.63;5203920;28;20290;-69
2023/06/04 10:05:08;;;;;;;5.28;3.75;;;26.20;58.70;;;26.91;28.62;97990.59;5199620;28;20308;-69
2023/06/04 10:07:44;;;;;;;4.40;4.00;;;26.40;58.20;;;26.91;28.84;97990.59;5202787;28;20228;-70
2023/06/04 10:10:21;;;;;;;4.25;3.85;;;26.20;58.60;;;27.09;29.09;97999.22;5204516;28;20295;-69
2023/06/04 10:13:02;;;;;;;5.65;3.28;;;26.40;59.10;;;26.78;28.37;97996.75;5200657;28;20675;-70
2023/06/04 10:15:37;;;;;;;5.53;4.55;;;26.10;57.70;;;27.06;28.11;97992.22;5203046;28;20216;-70
2023/06/04 10:18:12;;;;;;;4.05;3.70;;;26.40;57.80;;;27.23;29.58;97986.91;5207520;28;20773;-71
2023/06/04 10:20:45;;;;;;;3.78;3.47;;;26.60;59.40;;;27.08;28.46;97985.22;5199242;28;20562;-69
2023/06/04 10:23:21;;;;;;;4.28;3.88;;;26.40;58.00;;;27.08;28.36;97993.09;5203575;28;20308;-69
2023/06/04 10:25:55;;;;;;;4.30;3.90;;;26.30;57.70;;;26.57;28.07;97989.03;5200856;28;20220;-70
2023/06/04 10:28:29;;;;;;;5.22;3.78;;;26.00;57.20;;;26.89;27.72;97986.22;5204087;28;20248;-70
2023/06/04 10:31:03;;;;;;;4.95;4.05;;;26.20;57.30;;;26.73;27.79;97990.69;5199285;28;20666;-69
2023/06/04 10:33:38;;;;;;;5.57;3.88;;;26.00;56.80;;;26.29;27.78;97999.56;5194296;28;20237;-70
2023/06/04 10:36:19;;;;;;;5.32;4.05;;;25.90;56.70;;;26.23;27.86;98000.47;5196967;28;20216;-69
2023/06/04 10:38:54;;;;;;;3.88;3.40;;;25.70;57.30;;;26.30;29.13;97985.63;5196186;28;20221;-70
2023/06/04 10:41:28;;;;;;;4.80;4.03;;;25.60;58.00;;;26.43;28.17;97975.94;5197676;28;20290;-70
2023/06/04 10:44:03;;;;;;;3.53;3.17;;;25.60;57.40;;;26.65;28.86;97971.50;5197389;28;20224;-69
2023/06/04 10:46:41;;;;;;;4.07;3.70;;;25.90;58.20;;;26.76;28.22;97974.94;5183351;28;20271;-68